Time;durP1;ratioP1;P1;durP2;ratioP2;P2;SDS_P1;SDS_P2;PMS_P1;PMS_P2;Temp;Humidity;BMP_temperature;BMP_pressure;BME280_temperature;BME280_humidity;BME280_pressure;Samples;Min_cycle;Max_cycle;Signal;HPM_P1;HPM_P2
2020/12/23 00:00:22;;;;;;;6.00;5.50;;;4.40;99.90;;;;;;5082876;28;20197;-75
2020/12/23 00:02:49;;;;;;;4.93;4.53;;;4.40;99.90;;;;;;5074389;28;20209;-75
2020/12/23 00:05:17;;;;;;;4.85;4.55;;;4.40;99.90;;;;;;5075986;28;20201;-78
2020/12/23 00:07:44;;;;;;;4.93;4.63;;;4.40;99.90;;;;;;5077955;28;20229;-76
2020/12/23 00:10:11;;;;;;;5.40;5.00;;;4.30;99.90;;;;;;5077361;28;20661;-76
2020/12/23 00:12:37;;;;;;;5.65;5.22;;;4.30;99.90;;;;;;5086955;28;20218;-76
2020/12/23 00:15:06;;;;;;;4.93;4.63;;;4.20;99.90;;;;;;5086280;28;20197;-76
2020/12/23 00:17:33;;;;;;;5.25;4.85;;;4.20;99.90;;;;;;5079477;28;20904;-76
2020/12/23 00:19:59;;;;;;;5.50;5.07;;;4.20;99.90;;;;;;5077958;28;20206;-76
2020/12/23 00:22:27;;;;;;;5.25;4.85;;;4.20;99.90;;;;;;5084501;28;20209;-75
2020/12/23 00:24:53;;;;;;;5.30;4.90;;;4.10;99.90;;;;;;5086287;28;20189;-76
2020/12/23 00:27:20;;;;;;;5.57;5.18;;;4.10;99.90;;;;;;5095265;28;20593;-76
2020/12/23 00:29:49;;;;;;;5.03;4.63;;;4.10;99.90;;;;;;5093096;28;20296;-75
2020/12/23 00:32:16;;;;;;;5.32;4.93;;;4.20;99.90;;;;;;5089271;28;20265;-76
2020/12/23 00:34:43;;;;;;;5.57;5.07;;;4.20;99.90;;;;;;5088613;28;20198;-76
2020/12/23 00:37:13;;;;;;;5.68;5.28;;;4.20;99.90;;;;;;5088225;28;20222;-77
2020/12/23 00:39:40;;;;;;;5.50;5.10;;;4.20;99.90;;;;;;5088749;28;20213;-76
2020/12/23 00:42:06;;;;;;;5.30;4.90;;;4.20;99.90;;;;;;5086430;28;20218;-75
2020/12/23 00:44:33;;;;;;;4.95;4.55;;;4.20;99.90;;;;;;5087782;28;20194;-76
2020/12/23 00:47:00;;;;;;;4.95;4.55;;;4.20;99.90;;;;;;5087434;28;20287;-77
2020/12/23 00:49:26;;;;;;;5.43;5.03;;;4.20;99.90;;;;;;5084980;28;20844;-77
2020/12/23 00:51:53;;;;;;;5.88;5.38;;;4.10;99.90;;;;;;5088901;28;20706;-77
2020/12/23 00:54:19;;;;;;;5.72;5.32;;;4.10;99.90;;;;;;5089321;28;20209;-76
2020/12/23 00:56:47;;;;;;;5.72;5.22;;;4.10;99.90;;;;;;5089414;28;20229;-76
2020/12/23 00:59:13;;;;;;;4.70;4.40;;;4.10;99.90;;;;;;5089251;28;20584;-75
2020/12/23 01:01:40;;;;;;;5.22;4.82;;;4.20;99.90;;;;;;5084718;28;20218;-76
2020/12/23 01:04:06;;;;;;;5.00;4.60;;;4.20;99.90;;;;;;5085226;28;20213;-75
2020/12/23 01:06:33;;;;;;;5.22;4.82;;;4.20;99.90;;;;;;5090328;28;20649;-75
2020/12/23 01:08:59;;;;;;;4.63;4.32;;;4.20;99.90;;;;;;5085066;28;20731;-75
2020/12/23 01:11:26;;;;;;;5.45;4.95;;;4.20;99.90;;;;;;5082403;28;20214;-76
2020/12/23 01:13:53;;;;;;;4.90;4.60;;;4.10;99.90;;;;;;5088406;28;20213;-76
2020/12/23 01:16:21;;;;;;;5.20;4.80;;;4.10;99.90;;;;;;5088718;28;20217;-74
2020/12/23 01:18:47;;;;;;;5.25;4.88;;;4.10;99.90;;;;;;5081046;28;20214;-76
2020/12/23 01:21:14;;;;;;;4.80;4.40;;;4.10;99.90;;;;;;5091796;28;20204;-75
2020/12/23 01:23:42;;;;;;;4.78;4.47;;;4.10;99.90;;;;;;5084506;28;20638;-77
2020/12/23 01:26:08;;;;;;;5.03;4.63;;;4.10;99.90;;;;;;5081860;28;20251;-76
2020/12/23 01:28:35;;;;;;;5.15;4.75;;;4.10;99.90;;;;;;5088048;28;20218;-76
2020/12/23 01:31:05;;;;;;;5.32;4.93;;;4.10;99.90;;;;;;5081474;28;20867;-75
2020/12/23 01:33:31;;;;;;;5.03;4.70;;;4.10;99.90;;;;;;5082620;28;20214;-76
2020/12/23 01:35:58;;;;;;;4.95;4.65;;;4.00;99.90;;;;;;5087337;28;20224;-75
2020/12/23 01:38:24;;;;;;;5.35;4.95;;;4.00;99.90;;;;;;5087197;28;20221;-75
2020/12/23 01:40:56;;;;;;;4.80;4.40;;;4.00;99.90;;;;;;5087881;28;20238;-76
2020/12/23 01:43:23;;;;;;;5.15;4.78;;;4.00;99.90;;;;;;5079187;28;20205;-75
2020/12/23 01:45:49;;;;;;;4.88;4.57;;;4.00;99.90;;;;;;5089922;28;20266;-76
2020/12/23 01:48:20;;;;;;;5.32;4.97;;;4.00;99.90;;;;;;5081463;28;20217;-76
2020/12/23 01:50:47;;;;;;;4.57;4.20;;;4.00;99.90;;;;;;5087544;28;20284;-76
2020/12/23 01:53:16;;;;;;;4.88;4.55;;;4.00;99.90;;;;;;5091607;28;20213;-76
2020/12/23 01:55:44;;;;;;;4.70;4.40;;;4.00;99.90;;;;;;5088147;28;20231;-76
2020/12/23 01:58:11;;;;;;;5.38;4.90;;;4.00;99.90;;;;;;5086156;28;20260;-77
2020/12/23 02:00:38;;;;;;;5.22;4.82;;;4.00;99.90;;;;;;5083637;28;20834;-76
2020/12/23 02:03:08;;;;;;;5.35;4.95;;;4.00;99.90;;;;;;5086735;28;20220;-75
2020/12/23 02:05:47;;;;;;;5.00;4.70;;;4.00;99.90;;;;;;5089394;28;20198;-75
2020/12/23 02:08:14;;;;;;;5.30;4.90;;;3.90;99.90;;;;;;5085210;28;20233;-76
2020/12/23 02:10:40;;;;;;;5.60;5.20;;;3.90;99.90;;;;;;5082042;28;20664;-75
2020/12/23 02:13:09;;;;;;;5.40;5.00;;;3.90;99.90;;;;;;5097838;28;20214;-76
2020/12/23 02:15:35;;;;;;;5.32;4.95;;;3.80;99.90;;;;;;5092066;28;20194;-75
2020/12/23 02:18:02;;;;;;;5.28;4.93;;;3.70;99.90;;;;;;5084935;28;20222;-76
2020/12/23 02:20:28;;;;;;;5.47;5.07;;;3.60;99.90;;;;;;5084016;28;20541;-76
2020/12/23 02:22:56;;;;;;;5.78;5.32;;;3.60;99.90;;;;;;5091173;28;20217;-78
2020/12/23 02:25:22;;;;;;;5.35;4.85;;;3.60;99.90;;;;;;5083311;28;20198;-76
2020/12/23 02:27:49;;;;;;;5.80;5.30;;;3.60;99.90;;;;;;5087802;28;20233;-75
2020/12/23 02:30:15;;;;;;;6.60;5.50;;;3.60;99.90;;;;;;5079786;28;21804;-75
2020/12/23 02:32:42;;;;;;;5.65;5.22;;;3.60;99.90;;;;;;5088837;28;20745;-76
2020/12/23 02:35:10;;;;;;;5.68;5.28;;;3.60;99.90;;;;;;5084832;28;20244;-76
2020/12/23 02:37:36;;;;;;;5.60;5.20;;;3.70;99.90;;;;;;5085129;28;20217;-75
2020/12/23 02:40:05;;;;;;;5.82;5.32;;;3.70;99.90;;;;;;5087549;28;20280;-75
2020/12/23 02:42:32;;;;;;;5.40;5.00;;;3.60;99.90;;;;;;5090378;28;20316;-76
2020/12/23 02:44:58;;;;;;;5.45;5.05;;;3.70;99.90;;;;;;5087214;28;20213;-75
2020/12/23 02:47:25;;;;;;;5.03;4.63;;;3.60;99.90;;;;;;5086524;28;20556;-75
2020/12/23 02:49:51;;;;;;;5.43;5.03;;;3.60;99.90;;;;;;5082430;28;20213;-76
2020/12/23 02:52:18;;;;;;;5.40;5.00;;;3.60;99.90;;;;;;5091144;28;20209;-75
2020/12/23 02:54:45;;;;;;;5.25;4.85;;;3.70;99.90;;;;;;5085930;28;20193;-74
2020/12/23 02:57:12;;;;;;;5.15;4.75;;;3.60;99.90;;;;;;5080092;28;20225;-77
2020/12/23 02:59:39;;;;;;;4.57;4.28;;;3.60;99.90;;;;;;5077924;28;20933;-75
2020/12/23 03:02:07;;;;;;;5.75;5.28;;;3.60;99.90;;;;;;5081653;28;20312;-75
2020/12/23 03:04:33;;;;;;;5.50;5.10;;;3.60;99.90;;;;;;5085757;28;20274;-75
2020/12/23 03:07:00;;;;;;;5.57;5.18;;;3.60;99.90;;;;;;5095485;28;20213;-76
2020/12/23 03:09:26;;;;;;;4.97;4.68;;;3.60;99.90;;;;;;5086192;28;20224;-75
2020/12/23 03:11:53;;;;;;;5.50;5.10;;;3.60;99.90;;;;;;5085943;28;20221;-76
2020/12/23 03:14:20;;;;;;;4.85;4.55;;;3.60;99.90;;;;;;5085308;28;20214;-75
2020/12/23 03:16:47;;;;;;;5.60;5.20;;;3.60;99.90;;;;;;5085966;28;20225;-76
2020/12/23 03:19:13;;;;;;;5.65;5.25;;;3.60;99.90;;;;;;5083968;28;20764;-75
2020/12/23 03:21:40;;;;;;;6.10;5.70;;;3.70;99.90;;;;;;5096790;28;20189;-75
2020/12/23 03:24:07;;;;;;;5.38;4.97;;;3.70;99.90;;;;;;5085712;28;20197;-75
2020/12/23 03:26:33;;;;;;;4.93;4.63;;;3.70;99.90;;;;;;5081129;28;20193;-75
2020/12/23 03:29:00;;;;;;;5.28;4.88;;;3.70;99.90;;;;;;5083348;28;20276;-76
2020/12/23 03:31:29;;;;;;;4.82;4.53;;;3.70;99.90;;;;;;5086297;28;20194;-76
2020/12/23 03:33:56;;;;;;;5.13;4.82;;;3.70;99.90;;;;;;5083520;28;20217;-76
2020/12/23 03:36:22;;;;;;;5.28;4.88;;;3.70;99.90;;;;;;5086579;28;20233;-75
2020/12/23 03:38:49;;;;;;;5.15;4.75;;;3.70;99.90;;;;;;5082922;28;20206;-75
2020/12/23 03:41:16;;;;;;;5.32;4.93;;;3.70;99.90;;;;;;5087142;28;20262;-75
2020/12/23 03:43:43;;;;;;;5.32;4.93;;;3.70;99.90;;;;;;5089471;28;20304;-75
2020/12/23 03:46:09;;;;;;;5.47;5.07;;;3.60;99.90;;;;;;5086167;28;20193;-75
2020/12/23 03:48:37;;;;;;;5.32;4.93;;;3.60;99.90;;;;;;5087965;28;20609;-75
2020/12/23 03:51:03;;;;;;;6.40;5.70;;;3.50;99.90;;;;;;5086356;28;20189;-76
2020/12/23 03:53:30;;;;;;;5.57;5.18;;;3.50;99.90;;;;;;5086763;28;20224;-76
2020/12/23 03:55:57;;;;;;;5.65;5.25;;;3.40;99.90;;;;;;5086959;28;20220;-76
2020/12/23 03:58:23;;;;;;;5.35;4.88;;;3.40;99.90;;;;;;5087351;28;20221;-76
2020/12/23 04:00:50;;;;;;;5.07;4.72;;;3.40;99.90;;;;;;5090522;28;20193;-75
2020/12/23 04:03:16;;;;;;;5.28;4.78;;;3.40;99.90;;;;;;5081848;28;20225;-75
2020/12/23 04:05:44;;;;;;;5.63;5.18;;;3.40;99.90;;;;;;5085577;28;20229;-75
2020/12/23 04:08:10;;;;;;;5.63;5.22;;;3.40;99.90;;;;;;5085311;28;20225;-76
2020/12/23 04:10:37;;;;;;;5.38;4.97;;;3.40;99.90;;;;;;5088867;28;20551;-75
2020/12/23 04:13:03;;;;;;;6.00;5.60;;;3.30;99.90;;;;;;5091700;28;20220;-76
2020/12/23 04:15:30;;;;;;;5.90;5.50;;;3.30;99.90;;;;;;5084374;28;20190;-75
2020/12/23 04:17:56;;;;;;;5.55;5.15;;;3.30;99.90;;;;;;5089867;28;20225;-76
2020/12/23 04:20:23;;;;;;;5.32;4.93;;;3.20;99.90;;;;;;5085809;28;20197;-76
2020/12/23 04:22:50;;;;;;;5.13;4.82;;;3.20;99.90;;;;;;5096730;28;20209;-75
2020/12/23 04:25:17;;;;;;;5.10;4.80;;;3.20;99.90;;;;;;5086386;28;20194;-75
2020/12/23 04:27:44;;;;;;;6.25;5.75;;;3.30;99.90;;;;;;5088293;28;20212;-76
2020/12/23 04:30:11;;;;;;;4.88;4.57;;;3.30;99.90;;;;;;5084690;28;20786;-75
2020/12/23 04:32:38;;;;;;;4.70;4.40;;;3.30;99.90;;;;;;5088930;28;20232;-76
2020/12/23 04:35:05;;;;;;;5.57;5.18;;;3.30;99.90;;;;;;5080784;28;20643;-76
2020/12/23 04:37:33;;;;;;;5.75;5.25;;;3.40;99.90;;;;;;5088430;28;20243;-76
2020/12/23 04:40:00;;;;;;;5.55;5.13;;;3.40;99.90;;;;;;5076660;28;20212;-75
2020/12/23 04:42:28;;;;;;;5.72;5.22;;;3.30;99.90;;;;;;5085627;28;20214;-75
2020/12/23 04:44:55;;;;;;;5.53;5.13;;;3.30;99.90;;;;;;5084591;28;20197;-76
2020/12/23 04:47:25;;;;;;;5.65;5.20;;;3.30;99.90;;;;;;5084787;28;20307;-76
2020/12/23 04:49:54;;;;;;;6.80;6.25;;;3.40;99.90;;;;;;5078824;28;20285;-76
2020/12/23 04:52:24;;;;;;;5.90;5.40;;;3.30;99.90;;;;;;5096391;28;20361;-75
2020/12/23 04:54:52;;;;;;;6.22;5.72;;;3.30;99.90;;;;;;5092317;28;20242;-76
2020/12/23 04:57:19;;;;;;;5.32;4.93;;;3.30;99.90;;;;;;5081171;28;20209;-75
2020/12/23 04:59:46;;;;;;;5.50;5.10;;;3.30;99.90;;;;;;5086471;28;20597;-76
2020/12/23 05:02:13;;;;;;;6.25;5.75;;;3.20;99.90;;;;;;5086554;28;20209;-75
2020/12/23 05:04:39;;;;;;;5.57;5.18;;;3.20;99.90;;;;;;5083841;28;20282;-77
2020/12/23 05:07:06;;;;;;;5.50;5.10;;;3.30;99.90;;;;;;5084135;28;20338;-76
2020/12/23 05:09:33;;;;;;;5.55;5.15;;;3.30;99.90;;;;;;5082706;28;20683;-75
2020/12/23 05:12:01;;;;;;;5.60;5.20;;;3.30;99.90;;;;;;5087301;28;20235;-75
2020/12/23 05:14:29;;;;;;;4.60;4.25;;;3.30;99.90;;;;;;5087113;28;20220;-76
2020/12/23 05:16:56;;;;;;;5.18;4.88;;;3.30;99.90;;;;;;5087199;28;20198;-76
2020/12/23 05:19:23;;;;;;;5.70;5.30;;;3.30;99.90;;;;;;5081495;28;20230;-75
2020/12/23 05:21:50;;;;;;;5.70;5.30;;;3.30;99.90;;;;;;5092289;28;20189;-75
2020/12/23 05:24:17;;;;;;;5.65;5.25;;;3.30;99.90;;;;;;5084232;28;20701;-76
2020/12/23 05:26:45;;;;;;;5.80;5.40;;;3.30;99.90;;;;;;5084228;28;20190;-76
2020/12/23 05:29:13;;;;;;;6.10;5.60;;;3.30;99.90;;;;;;5090328;28;20230;-76
2020/12/23 05:31:41;;;;;;;5.80;5.40;;;3.20;99.90;;;;;;5085217;28;20214;-75
2020/12/23 05:34:08;;;;;;;5.82;5.43;;;3.20;99.90;;;;;;5083273;28;20213;-75
2020/12/23 05:36:36;;;;;;;6.15;5.65;;;3.10;99.90;;;;;;5087352;28;20194;-76
2020/12/23 05:39:06;;;;;;;5.93;5.47;;;3.10;99.90;;;;;;5081526;28;20234;-75
2020/12/23 05:41:32;;;;;;;6.13;5.63;;;3.10;99.90;;;;;;5087602;28;20662;-76
2020/12/23 05:44:00;;;;;;;5.85;5.45;;;3.10;99.90;;;;;;5089339;28;20205;-78
2020/12/23 05:46:26;;;;;;;5.53;5.13;;;3.10;99.90;;;;;;5101052;28;20686;-77
2020/12/23 05:48:54;;;;;;;5.85;5.45;;;3.10;99.90;;;;;;5090852;28;20213;-75
2020/12/23 05:51:21;;;;;;;6.00;5.60;;;3.10;99.90;;;;;;5086195;28;20189;-75
2020/12/23 05:53:48;;;;;;;6.05;5.55;;;3.10;99.90;;;;;;5089785;28;20218;-76
2020/12/23 05:56:15;;;;;;;6.00;5.50;;;3.10;99.90;;;;;;5089605;28;20614;-75
2020/12/23 05:58:41;;;;;;;5.90;5.43;;;3.10;99.90;;;;;;5085752;28;20244;-76
2020/12/23 06:01:09;;;;;;;6.05;5.55;;;3.10;99.90;;;;;;5086666;28;20241;-74
2020/12/23 06:03:55;;;;;;;6.43;5.93;;;3.10;99.90;;;;;;5082262;28;20209;-76
2020/12/23 06:06:25;;;;;;;6.43;5.93;;;3.00;99.90;;;;;;5089087;28;20209;-74
2020/12/23 06:08:54;;;;;;;5.90;5.40;;;3.00;99.90;;;;;;5079407;28;20229;-76
2020/12/23 06:11:31;;;;;;;5.30;4.90;;;2.90;99.90;;;;;;5086420;28;20693;-75
2020/12/23 06:14:12;;;;;;;6.72;6.18;;;2.90;99.90;;;;;;5088323;28;20217;-75
2020/12/23 06:16:40;;;;;;;7.20;6.60;;;2.90;99.90;;;;;;5081514;28;20322;-76
2020/12/23 06:19:10;;;;;;;8.18;6.55;;;2.90;99.90;;;;;;5079495;28;20224;-74
2020/12/23 06:21:36;;;;;;;8.93;7.65;;;2.90;99.90;;;;;;5088187;28;20194;-75
2020/12/23 06:24:06;;;;;;;8.00;7.20;;;2.80;99.90;;;;;;5084897;28;20233;-75
2020/12/23 06:26:34;;;;;;;9.45;8.40;;;2.70;99.90;;;;;;5085118;28;20198;-75
2020/12/23 06:29:03;;;;;;;9.23;8.30;;;2.70;99.90;;;;;;5074779;28;20726;-74
2020/12/23 06:31:36;;;;;;;8.52;7.72;;;2.70;99.90;;;;;;5076491;28;20191;-75
2020/12/23 06:34:04;;;;;;;9.30;7.40;;;2.70;99.90;;;;;;5079135;28;20291;-74
2020/12/23 06:36:32;;;;;;;9.40;8.40;;;2.70;99.90;;;;;;5084001;28;20216;-75
2020/12/23 06:39:24;;;;;;;8.63;7.82;;;2.70;99.90;;;;;;5094864;28;20213;-74
2020/12/23 06:41:52;;;;;;;8.68;7.78;;;2.70;99.90;;;;;;5084112;28;20201;-76
2020/12/23 06:44:19;;;;;;;8.40;7.60;;;2.80;99.90;;;;;;5078519;28;20214;-75
2020/12/23 06:47:11;;;;;;;8.95;8.05;;;2.80;99.90;;;;;;5073141;28;20587;-74
2020/12/23 06:49:39;;;;;;;8.15;7.43;;;2.80;99.90;;;;;;5076548;28;20213;-74
2020/12/23 06:52:29;;;;;;;8.15;7.45;;;2.80;99.90;;;;;;5079291;28;20189;-75
2020/12/23 06:54:57;;;;;;;8.18;7.38;;;2.80;99.90;;;;;;5074810;28;20241;-74
2020/12/23 06:57:58;;;;;;;8.15;7.45;;;2.70;99.90;;;;;;5076698;28;20189;-75
2020/12/23 07:00:34;;;;;;;8.20;7.50;;;2.60;99.90;;;;;;5079453;28;20279;-75
2020/12/23 07:03:02;;;;;;;7.32;6.72;;;2.60;99.90;;;;;;5075756;28;20189;-75
2020/12/23 07:05:34;;;;;;;7.95;7.25;;;2.50;99.90;;;;;;5074748;28;20279;-75
2020/12/23 07:08:03;;;;;;;7.95;7.25;;;2.60;99.90;;;;;;5082113;28;20226;-75
2020/12/23 07:10:31;;;;;;;103.88;10.00;;;2.60;99.90;;;;;;5073894;28;20214;-75
2020/12/23 07:12:59;;;;;;;209.38;16.42;;;2.50;99.90;;;;;;5081374;28;20954;-74
2020/12/23 07:15:28;;;;;;;246.02;14.68;;;2.40;99.90;;;;;;5077607;28;20221;-73
2020/12/23 07:17:58;;;;;;;19.25;7.88;;;2.30;99.90;;;;;;5080103;28;20213;-74
2020/12/23 07:20:25;;;;;;;8.35;7.68;;;2.20;99.90;;;;;;5083411;28;20706;-74
2020/12/23 07:22:53;;;;;;;8.77;7.90;;;2.30;99.90;;;;;;5082043;28;20197;-75
2020/12/23 07:25:24;;;;;;;8.48;7.65;;;2.40;99.90;;;;;;5080103;28;20213;-75
2020/12/23 07:27:55;;;;;;;8.40;7.57;;;2.40;99.90;;;;;;5074073;28;20233;-75
2020/12/23 07:30:22;;;;;;;31.67;8.60;;;2.50;99.90;;;;;;5097324;28;20201;-77
2020/12/23 07:33:00;;;;;;;7.70;7.10;;;2.60;99.90;;;;;;5083717;28;20206;-76
2020/12/23 07:35:27;;;;;;;7.50;6.90;;;2.60;99.90;;;;;;5076302;28;20231;-76
2020/12/23 07:37:57;;;;;;;8.13;7.43;;;2.60;99.90;;;;;;5080341;28;20638;-77
2020/12/23 07:40:26;;;;;;;7.65;6.95;;;2.70;99.90;;;;;;5077699;28;20740;-75
2020/12/23 07:42:53;;;;;;;6.72;6.22;;;2.80;99.90;;;;;;5082423;28;20197;-76
2020/12/23 07:45:21;;;;;;;7.57;6.93;;;2.90;99.90;;;;;;5078350;28;20230;-75
2020/12/23 07:47:55;;;;;;;6.35;5.85;;;3.00;99.90;;;;;;5083061;28;20312;-76
2020/12/23 07:50:22;;;;;;;6.78;6.22;;;3.10;99.90;;;;;;5077393;28;20212;-75
2020/12/23 07:52:49;;;;;;;6.88;6.30;;;3.10;99.90;;;;;;5081560;28;20246;-75
2020/12/23 07:55:16;;;;;;;7.45;6.82;;;3.20;99.90;;;;;;5079957;28;20236;-76
2020/12/23 07:57:44;;;;;;;7.65;6.85;;;3.30;99.90;;;;;;5083748;28;20232;-73
2020/12/23 08:00:12;;;;;;;10.07;9.05;;;3.60;99.90;;;;;;5086773;28;20784;-76
2020/12/23 08:02:39;;;;;;;8.13;7.32;;;4.30;99.90;;;;;;5078456;28;20200;-75
2020/12/23 08:05:07;;;;;;;7.63;7.03;;;4.70;99.90;;;;;;5079821;28;20213;-75
2020/12/23 08:07:38;;;;;;;7.97;7.28;;;4.70;99.90;;;;;;5077865;28;20719;-76
2020/12/23 08:10:13;;;;;;;7.28;6.68;;;4.70;99.90;;;;;;5077189;28;20296;-75
2020/12/23 08:12:41;;;;;;;7.90;7.20;;;4.60;99.90;;;;;;5076137;28;20237;-76
2020/12/23 08:15:13;;;;;;;7.88;7.07;;;4.70;99.90;;;;;;5074619;28;20902;-77
2020/12/23 08:17:41;;;;;;;7.80;7.10;;;4.70;99.90;;;;;;5072220;28;20729;-76
2020/12/23 08:20:10;;;;;;;8.68;7.88;;;4.80;99.90;;;;;;5076883;28;20224;-77
2020/12/23 08:22:37;;;;;;;9.45;8.65;;;4.90;99.90;;;;;;5080050;28;20205;-76
2020/12/23 08:25:15;;;;;;;8.32;7.53;;;5.00;99.90;;;;;;5074912;28;20263;-77
2020/12/23 08:27:44;;;;;;;8.95;8.25;;;4.80;99.90;;;;;;5073482;28;20220;-75
2020/12/23 08:30:16;;;;;;;8.18;7.47;;;4.70;99.90;;;;;;5072954;28;20642;-75
2020/12/23 08:32:45;;;;;;;8.63;7.93;;;4.80;99.90;;;;;;5078714;28;20216;-77
2020/12/23 08:35:13;;;;;;;11.25;10.25;;;4.90;99.90;;;;;;5079559;28;20567;-76
2020/12/23 08:37:39;;;;;;;12.10;11.00;;;5.00;99.90;;;;;;5077621;28;20210;-75
2020/12/23 08:40:08;;;;;;;10.85;9.85;;;5.00;99.90;;;;;;5073918;28;20244;-76
2020/12/23 08:42:35;;;;;;;10.25;9.35;;;5.00;99.90;;;;;;5082622;28;20645;-76
2020/12/23 08:45:02;;;;;;;9.98;9.07;;;5.00;99.90;;;;;;5075308;28;20221;-76
2020/12/23 08:47:32;;;;;;;9.75;8.85;;;4.90;99.90;;;;;;5072477;28;20208;-77
2020/12/23 08:50:00;;;;;;;9.40;8.60;;;4.90;99.90;;;;;;5080682;28;20270;-76
2020/12/23 08:52:28;;;;;;;9.98;8.68;;;4.90;99.90;;;;;;5077042;28;20260;-75
2020/12/23 08:54:55;;;;;;;8.85;8.05;;;4.80;99.90;;;;;;5077006;28;20228;-76
2020/12/23 08:57:26;;;;;;;9.77;8.88;;;4.90;99.90;;;;;;5077156;28;20216;-76
2020/12/23 08:59:53;;;;;;;9.85;8.95;;;5.00;99.90;;;;;;5073901;28;20295;-76
2020/12/23 09:02:20;;;;;;;9.30;8.55;;;5.20;99.90;;;;;;5074320;28;20205;-76
2020/12/23 09:04:48;;;;;;;9.45;8.63;;;5.40;99.90;;;;;;5080050;28;20217;-77
2020/12/23 09:07:21;;;;;;;10.48;9.57;;;5.70;99.90;;;;;;5088687;28;20530;-76
2020/12/23 09:09:49;;;;;;;9.63;8.80;;;6.30;99.90;;;;;;5079804;28;20586;-76
2020/12/23 09:12:22;;;;;;;10.07;7.85;;;6.80;99.90;;;;;;5072624;28;20217;-75
2020/12/23 09:14:49;;;;;;;8.32;7.63;;;7.00;99.90;;;;;;5084866;28;20221;-76
2020/12/23 09:17:24;;;;;;;9.23;8.13;;;6.90;99.90;;;;;;5083792;28;20202;-76
2020/12/23 09:20:00;;;;;;;8.45;7.75;;;6.80;99.90;;;;;;5087096;28;20229;-76
2020/12/23 09:22:36;;;;;;;8.88;8.10;;;6.70;99.90;;;;;;5073312;28;20396;-77
2020/12/23 09:25:20;;;;;;;8.77;8.07;;;6.50;99.90;;;;;;5083056;28;20228;-76
2020/12/23 09:27:48;;;;;;;7.75;7.15;;;6.20;99.90;;;;;;5073011;28;20722;-76
2020/12/23 09:30:28;;;;;;;8.48;7.78;;;6.20;99.90;;;;;;5072688;28;20573;-77
2020/12/23 09:32:55;;;;;;;8.30;7.60;;;6.20;99.90;;;;;;5071925;28;20468;-76
2020/12/23 09:35:24;;;;;;;8.13;7.43;;;6.10;99.90;;;;;;5075793;28;20217;-76
2020/12/23 09:38:02;;;;;;;8.48;7.68;;;6.20;99.90;;;;;;5069234;28;20290;-76
2020/12/23 09:40:28;;;;;;;8.15;7.43;;;6.80;99.90;;;;;;5074478;28;20220;-76
2020/12/23 09:42:55;;;;;;;7.78;7.07;;;7.70;99.90;;;;;;5075420;28;20197;-76
2020/12/23 09:45:22;;;;;;;7.85;7.25;;;8.20;99.90;;;;;;5073575;28;20611;-77
2020/12/23 09:47:48;;;;;;;6.80;6.30;;;8.40;99.90;;;;;;5077129;28;20411;-76
2020/12/23 09:50:15;;;;;;;7.00;6.40;;;8.50;99.90;;;;;;5073829;28;20240;-76
2020/12/23 09:52:42;;;;;;;6.93;6.32;;;8.30;99.90;;;;;;5071888;28;20201;-76
2020/12/23 09:55:09;;;;;;;7.45;6.85;;;8.10;99.90;;;;;;5074888;28;20228;-77
2020/12/23 09:57:36;;;;;;;7.35;6.68;;;7.90;99.90;;;;;;5071674;28;20225;-76
2020/12/23 10:00:05;;;;;;;6.43;5.90;;;7.70;99.90;;;;;;5077098;28;20699;-75
2020/12/23 10:02:31;;;;;;;6.10;5.60;;;7.70;99.90;;;;;;5073778;28;20205;-76
2020/12/23 10:04:58;;;;;;;6.60;6.00;;;7.60;99.90;;;;;;5077478;28;20226;-76
2020/12/23 10:07:25;;;;;;;6.05;5.60;;;7.50;99.90;;;;;;5079560;28;20198;-78
2020/12/23 10:09:52;;;;;;;7.28;6.68;;;7.40;99.90;;;;;;5074722;28;20229;-77
2020/12/23 10:12:22;;;;;;;5.88;5.38;;;7.30;99.90;;;;;;5074750;28;20221;-76
2020/12/23 10:14:49;;;;;;;7.18;6.57;;;7.30;99.90;;;;;;5068440;28;20225;-76
2020/12/23 10:17:15;;;;;;;6.80;6.20;;;7.30;99.90;;;;;;5069550;28;20254;-74
2020/12/23 10:19:42;;;;;;;6.28;5.78;;;7.40;99.90;;;;;;5068819;28;20221;-77
2020/12/23 10:22:08;;;;;;;7.38;6.78;;;7.30;99.90;;;;;;5069983;28;20193;-76
2020/12/23 10:24:35;;;;;;;7.38;6.78;;;7.30;99.90;;;;;;5077175;28;20287;-77
2020/12/23 10:27:02;;;;;;;9.35;8.45;;;7.30;99.90;;;;;;5078600;28;20722;-76
2020/12/23 10:29:29;;;;;;;10.10;9.07;;;7.20;99.90;;;;;;5071946;28;20247;-76
2020/12/23 10:31:56;;;;;;;9.05;8.15;;;7.20;99.90;;;;;;5076563;28;20194;-76
2020/12/23 10:34:22;;;;;;;10.25;8.45;;;7.10;99.90;;;;;;5071413;28;20221;-75
2020/12/23 10:36:49;;;;;;;9.20;8.30;;;7.00;99.90;;;;;;5073055;28;20578;-76
2020/12/23 10:39:17;;;;;;;8.35;7.63;;;7.00;99.90;;;;;;5071060;28;20226;-75
2020/12/23 10:41:44;;;;;;;8.02;7.38;;;6.90;99.90;;;;;;5070437;28;20709;-76
2020/12/23 10:44:12;;;;;;;7.40;6.80;;;6.90;99.90;;;;;;5068939;28;20193;-76
2020/12/23 10:46:39;;;;;;;7.13;6.53;;;6.90;99.90;;;;;;5071042;28;20214;-76
2020/12/23 10:49:06;;;;;;;6.60;6.00;;;6.70;99.90;;;;;;5076087;28;20213;-76
2020/12/23 10:51:32;;;;;;;7.25;6.65;;;6.60;99.90;;;;;;5073288;28;20965;-76
2020/12/23 10:53:59;;;;;;;7.45;6.80;;;6.50;99.90;;;;;;5076074;28;20312;-77
2020/12/23 10:56:25;;;;;;;6.85;6.25;;;6.50;99.90;;;;;;5069034;28;20214;-76
2020/12/23 10:58:52;;;;;;;7.15;6.53;;;6.40;99.90;;;;;;5075481;28;20222;-76
2020/12/23 11:01:20;;;;;;;7.85;7.15;;;6.40;99.90;;;;;;5082483;28;20221;-76
2020/12/23 11:03:46;;;;;;;7.00;6.45;;;6.40;99.90;;;;;;5075796;28;20194;-75
2020/12/23 11:06:14;;;;;;;7.68;6.97;;;6.50;99.90;;;;;;5077182;28;20864;-75
2020/12/23 11:08:41;;;;;;;8.15;7.53;;;6.40;99.90;;;;;;5075952;28;20248;-76
2020/12/23 11:11:12;;;;;;;8.32;7.53;;;6.40;99.90;;;;;;5070646;28;20272;-75
2020/12/23 11:13:40;;;;;;;9.52;8.73;;;6.40;99.90;;;;;;5074010;28;20222;-75
2020/12/23 11:16:07;;;;;;;8.80;8.10;;;6.40;99.90;;;;;;5074063;28;20253;-75
2020/12/23 11:18:34;;;;;;;8.88;8.07;;;6.30;99.90;;;;;;5069722;28;20704;-75
2020/12/23 11:21:01;;;;;;;9.05;8.18;;;6.20;99.90;;;;;;5073399;28;20214;-76
2020/12/23 11:23:28;;;;;;;9.23;8.48;;;6.20;99.90;;;;;;5074332;28;20200;-76
2020/12/23 11:25:55;;;;;;;9.60;8.70;;;6.20;99.90;;;;;;5077180;28;20251;-75
2020/12/23 11:28:22;;;;;;;8.80;8.10;;;6.10;99.90;;;;;;5072457;28;20274;-76
2020/12/23 11:30:49;;;;;;;10.10;9.20;;;6.10;99.90;;;;;;5079705;28;20300;-76
2020/12/23 11:33:16;;;;;;;9.85;8.98;;;6.10;99.90;;;;;;5080453;28;20244;-75
2020/12/23 11:35:43;;;;;;;8.93;8.13;;;6.10;99.90;;;;;;5076445;28;21668;-76
2020/12/23 11:38:10;;;;;;;8.77;8.02;;;6.10;99.90;;;;;;5075921;28;20213;-76
2020/12/23 11:40:36;;;;;;;8.13;7.47;;;6.10;99.90;;;;;;5070220;28;20641;-76
2020/12/23 11:43:03;;;;;;;8.55;7.85;;;6.10;99.90;;;;;;5076707;28;20202;-75
2020/12/23 11:45:29;;;;;;;9.00;8.20;;;6.10;99.90;;;;;;5068515;28;20714;-76
2020/12/23 11:47:56;;;;;;;8.75;8.05;;;6.10;99.90;;;;;;5077727;28;20250;-75
2020/12/23 11:50:23;;;;;;;9.10;8.30;;;6.10;99.90;;;;;;5070680;28;20303;-75
2020/12/23 11:52:50;;;;;;;9.13;8.32;;;6.10;99.90;;;;;;5073890;28;20204;-75
2020/12/23 11:55:18;;;;;;;10.27;9.43;;;6.10;99.90;;;;;;5082410;28;20214;-76
2020/12/23 11:57:45;;;;;;;10.15;9.25;;;6.10;99.90;;;;;;5083475;28;20975;-75
2020/12/23 12:00:11;;;;;;;10.10;9.20;;;6.00;99.90;;;;;;5072756;28;20239;-74
2020/12/23 12:02:38;;;;;;;10.75;9.65;;;6.00;99.90;;;;;;5069737;28;20200;-74
2020/12/23 12:05:05;;;;;;;10.23;9.32;;;5.90;99.90;;;;;;5074236;28;20610;-75
2020/12/23 12:07:31;;;;;;;10.35;9.45;;;5.80;99.90;;;;;;5077671;28;20196;-76
2020/12/23 12:09:59;;;;;;;9.50;8.63;;;5.70;99.90;;;;;;5075333;28;20224;-77
2020/12/23 12:12:26;;;;;;;10.02;9.13;;;5.70;99.90;;;;;;5076109;28;20671;-77
2020/12/23 12:14:52;;;;;;;9.20;8.40;;;5.70;99.90;;;;;;5074189;28;20484;-75
2020/12/23 12:17:19;;;;;;;10.20;9.32;;;5.70;99.90;;;;;;5079531;28;20197;-75
2020/12/23 12:19:46;;;;;;;8.80;8.10;;;5.70;99.90;;;;;;5081216;28;20202;-75
2020/12/23 12:22:12;;;;;;;8.32;7.63;;;5.70;99.90;;;;;;5085477;28;20208;-75
2020/12/23 12:24:39;;;;;;;8.32;7.55;;;5.70;99.90;;;;;;5083312;28;20186;-75
2020/12/23 12:27:06;;;;;;;16.48;13.18;;;5.80;99.90;;;;;;5080036;28;20193;-74
2020/12/23 12:29:33;;;;;;;23.55;17.25;;;5.80;99.90;;;;;;5085865;28;20221;-76
2020/12/23 12:31:59;;;;;;;15.52;12.32;;;5.80;99.90;;;;;;5075738;28;20198;-76
2020/12/23 12:34:27;;;;;;;13.35;11.15;;;5.80;99.90;;;;;;5079692;28;20681;-75
2020/12/23 12:36:54;;;;;;;12.07;10.88;;;5.80;99.90;;;;;;5077128;28;20218;-74
2020/12/23 12:39:21;;;;;;;10.73;9.63;;;5.80;99.90;;;;;;5074570;28;20593;-75
2020/12/23 12:41:47;;;;;;;9.80;8.90;;;5.70;99.90;;;;;;5085210;28;20356;-76
2020/12/23 12:44:15;;;;;;;9.93;9.02;;;5.70;99.90;;;;;;5086192;28;20181;-76
2020/12/23 12:46:43;;;;;;;11.77;10.65;;;5.70;99.90;;;;;;5083538;28;20218;-75
2020/12/23 12:49:09;;;;;;;9.43;8.52;;;5.80;99.90;;;;;;5078388;28;20425;-75
2020/12/23 12:51:36;;;;;;;9.35;8.55;;;5.70;99.90;;;;;;5082671;28;20223;-76
2020/12/23 12:54:02;;;;;;;8.63;7.82;;;5.70;99.90;;;;;;5083338;28;20217;-75
2020/12/23 12:56:30;;;;;;;8.35;7.60;;;5.80;99.90;;;;;;5080984;28;20279;-74
2020/12/23 12:58:57;;;;;;;8.40;7.63;;;5.80;99.90;;;;;;5080874;28;20217;-75